sensor_id;sensor_type;location;lat;lon;timestamp;pressure;altitude;pressure_sealevel;temperature;humidity
49529;BME280;35423;37.320;-121.762;2023-12-29T00:01:30;100317.92;;;28.41;24.45
49529;BME280;35423;37.320;-121.762;2023-12-29T00:03:55;100314.83;;;28.64;24.54
49529;BME280;35423;37.320;-121.762;2023-12-29T00:06:21;100314.88;;;28.43;24.82
49529;BME280;35423;37.320;-121.762;2023-12-29T00:08:49;100319.72;;;28.41;25.03
49529;BME280;35423;37.320;-121.762;2023-12-29T00:11:17;100327.80;;;28.14;24.99
49529;BME280;35423;37.320;-121.762;2023-12-29T00:13:39;100327.49;;;28.36;25.04
49529;BME280;35423;37.320;-121.762;2023-12-29T00:16:06;100329.29;;;28.28;25.01
49529;BME280;35423;37.320;-121.762;2023-12-29T00:18:31;100330.38;;;28.44;25.12
49529;BME280;35423;37.320;-121.762;2023-12-29T00:20:58;100332.05;;;28.39;25.21
49529;BME280;35423;37.320;-121.762;2023-12-29T00:23:24;100328.21;;;28.35;25.28
49529;BME280;35423;37.320;-121.762;2023-12-29T00:25:50;100325.04;;;28.08;25.44
49529;BME280;35423;37.320;-121.762;2023-12-29T00:28:18;100322.89;;;28.16;25.37
49529;BME280;35423;37.320;-121.762;2023-12-29T00:30:45;100325.30;;;28.06;25.22
49529;BME280;35423;37.320;-121.762;2023-12-29T00:33:13;100325.81;;;27.95;25.12
49529;BME280;35423;37.320;-121.762;2023-12-29T00:35:39;100324.58;;;28.42;25.06
49529;BME280;35423;37.320;-121.762;2023-12-29T00:38:06;100324.78;;;28.28;25.27
49529;BME280;35423;37.320;-121.762;2023-12-29T00:40:31;100324.63;;;28.15;25.57
49529;BME280;35423;37.320;-121.762;2023-12-29T00:43:00;100327.26;;;28.25;25.70
49529;BME280;35423;37.320;-121.762;2023-12-29T00:45:24;100333.57;;;27.89;25.89
49529;BME280;35423;37.320;-121.762;2023-12-29T00:47:49;100336.05;;;28.05;25.94
49529;BME280;35423;37.320;-121.762;2023-12-29T00:50:17;100337.83;;;28.29;26.02
49529;BME280;35423;37.320;-121.762;2023-12-29T00:52:43;100337.40;;;28.05;26.10
49529;BME280;35423;37.320;-121.762;2023-12-29T00:55:09;100337.13;;;27.85;26.25
49529;BME280;35423;37.320;-121.762;2023-12-29T00:57:35;100334.56;;;28.06;26.27
49529;BME280;35423;37.320;-121.762;2023-12-29T01:00:01;100332.12;;;28.04;26.41
49529;BME280;35423;37.320;-121.762;2023-12-29T01:02:27;100327.37;;;27.96;26.29
49529;BME280;35423;37.320;-121.762;2023-12-29T01:04:54;100325.79;;;27.87;26.37
49529;BME280;35423;37.320;-121.762;2023-12-29T01:07:20;100325.77;;;27.81;26.52
49529;BME280;35423;37.320;-121.762;2023-12-29T01:09:46;100325.47;;;27.73;26.63
49529;BME280;35423;37.320;-121.762;2023-12-29T01:12:12;100326.12;;;27.61;26.68
49529;BME280;35423;37.320;-121.762;2023-12-29T01:14:37;100326.95;;;27.27;26.84
49529;BME280;35423;37.320;-121.762;2023-12-29T01:17:07;100329.97;;;27.13;26.99
49529;BME280;35423;37.320;-121.762;2023-12-29T01:19:34;100329.71;;;27.24;27.08
49529;BME280;35423;37.320;-121.762;2023-12-29T01:22:03;100331.31;;;27.37;27.24
49529;BME280;35423;37.320;-121.762;2023-12-29T01:24:28;100329.08;;;27.25;27.31
49529;BME280;35423;37.320;-121.762;2023-12-29T01:26:54;100332.33;;;27.10;27.25
49529;BME280;35423;37.320;-121.762;2023-12-29T01:29:22;100331.28;;;26.98;27.15
49529;BME280;35423;37.320;-121.762;2023-12-29T01:31:50;100332.59;;;26.87;27.23
49529;BME280;35423;37.320;-121.762;2023-12-29T01:34:15;100337.59;;;26.77;27.24
49529;BME280;35423;37.320;-121.762;2023-12-29T01:36:45;100337.62;;;26.89;27.35
49529;BME280;35423;37.320;-121.762;2023-12-29T01:39:09;100339.23;;;27.05;27.43
49529;BME280;35423;37.320;-121.762;2023-12-29T01:41:39;100342.09;;;26.51;27.47
49529;BME280;35423;37.320;-121.762;2023-12-29T01:44:19;100351.29;;;26.72;27.57
49529;BME280;35423;37.320;-121.762;2023-12-29T01:46:37;100359.55;;;26.50;27.64
49529;BME280;35423;37.320;-121.762;2023-12-29T01:49:09;100357.13;;;26.68;27.59
49529;BME280;35423;37.320;-121.762;2023-12-29T01:51:39;100355.31;;;26.43;27.54
49529;BME280;35423;37.320;-121.762;2023-12-29T01:54:06;100353.68;;;26.60;27.62
49529;BME280;35423;37.320;-121.762;2023-12-29T01:56:31;100357.84;;;26.55;27.59
49529;BME280;35423;37.320;-121.762;2023-12-29T01:58:57;100358.19;;;26.26;27.66
49529;BME280;35423;37.320;-121.762;2023-12-29T02:01:25;100357.92;;;26.20;27.65
49529;BME280;35423;37.320;-121.762;2023-12-29T02:03:53;100357.58;;;26.54;27.70
49529;BME280;35423;37.320;-121.762;2023-12-29T02:06:20;100357.00;;;26.47;27.76
49529;BME280;35423;37.320;-121.762;2023-12-29T02:08:53;100360.49;;;25.92;27.85
49529;BME280;35423;37.320;-121.762;2023-12-29T02:11:18;100364.29;;;26.32;27.88
49529;BME280;35423;37.320;-121.762;2023-12-29T02:13:45;100363.75;;;26.06;27.96
49529;BME280;35423;37.320;-121.762;2023-12-29T02:16:21;100358.53;;;25.79;28.06
49529;BME280;35423;37.320;-121.762;2023-12-29T02:18:39;100354.59;;;26.18;28.08
49529;BME280;35423;37.320;-121.762;2023-12-29T02:21:05;100353.58;;;25.94;28.08
49529;BME280;35423;37.320;-121.762;2023-12-29T02:23:30;100351.87;;;26.11;28.12
49529;BME280;35423;37.320;-121.762;2023-12-29T02:25:58;100342.57;;;25.85;28.14
49529;BME280;35423;37.320;-121.762;2023-12-29T02:28:25;100338.56;;;25.76;28.21
49529;BME280;35423;37.320;-121.762;2023-12-29T02:30:54;100331.59;;;25.94;28.21
49529;BME280;35423;37.320;-121.762;2023-12-29T02:33:16;100328.67;;;25.48;28.23
49529;BME280;35423;37.320;-121.762;2023-12-29T02:35:43;100327.16;;;25.87;28.30
49529;BME280;35423;37.320;-121.762;2023-12-29T02:38:11;100324.21;;;25.38;28.32
49529;BME280;35423;37.320;-121.762;2023-12-29T02:40:37;100324.60;;;25.58;28.29
49529;BME280;35423;37.320;-121.762;2023-12-29T02:43:10;100325.21;;;25.78;28.27
49529;BME280;35423;37.320;-121.762;2023-12-29T02:45:38;100321.44;;;25.77;28.27
49529;BME280;35423;37.320;-121.762;2023-12-29T02:48:07;100322.15;;;25.83;28.21
49529;BME280;35423;37.320;-121.762;2023-12-29T02:50:32;100322.95;;;25.88;28.12
49529;BME280;35423;37.320;-121.762;2023-12-29T02:52:57;100320.73;;;25.90;28.10
49529;BME280;35423;37.320;-121.762;2023-12-29T02:55:24;100318.03;;;25.65;28.12
49529;BME280;35423;37.320;-121.762;2023-12-29T02:57:50;100321.02;;;25.87;28.16
49529;BME280;35423;37.320;-121.762;2023-12-29T03:00:17;100319.13;;;25.87;28.18
49529;BME280;35423;37.320;-121.762;2023-12-29T03:02:43;100318.80;;;25.84;28.19
49529;BME280;35423;37.320;-121.762;2023-12-29T03:05:10;100315.49;;;25.81;28.23
49529;BME280;35423;37.320;-121.762;2023-12-29T03:07:38;100310.19;;;25.79;28.33
49529;BME280;35423;37.320;-121.762;2023-12-29T03:10:05;100310.46;;;26.04;28.41
49529;BME280;35423;37.320;-121.762;2023-12-29T03:12:31;100309.32;;;25.75;28.45
49529;BME280;35423;37.320;-121.762;2023-12-29T03:14:59;100310.62;;;25.65;28.58
49529;BME280;35423;37.320;-121.762;2023-12-29T03:17:27;100308.05;;;25.58;28.67
49529;BME280;35423;37.320;-121.762;2023-12-29T03:19:53;100306.15;;;25.44;28.76
49529;BME280;35423;37.320;-121.762;2023-12-29T03:22:20;100300.23;;;25.32;28.89
49529;BME280;35423;37.320;-121.762;2023-12-29T03:24:46;100299.08;;;25.49;28.89
49529;BME280;35423;37.320;-121.762;2023-12-29T03:27:11;100293.55;;;24.95;28.87
49529;BME280;35423;37.320;-121.762;2023-12-29T03:29:39;100290.71;;;25.29;28.78
49529;BME280;35423;37.320;-121.762;2023-12-29T03:32:08;100287.03;;;25.16;28.62
49529;BME280;35423;37.320;-121.762;2023-12-29T03:34:33;100285.38;;;25.49;28.52
49529;BME280;35423;37.320;-121.762;2023-12-29T03:36:59;100289.39;;;25.44;28.66
49529;BME280;35423;37.320;-121.762;2023-12-29T03:39:26;100284.99;;;25.60;28.85
49529;BME280;35423;37.320;-121.762;2023-12-29T03:41:52;100282.18;;;25.23;28.93
49529;BME280;35423;37.320;-121.762;2023-12-29T03:44:17;100283.32;;;25.17;29.00
49529;BME280;35423;37.320;-121.762;2023-12-29T03:46:45;100287.82;;;25.64;29.01
49529;BME280;35423;37.320;-121.762;2023-12-29T03:49:11;100282.87;;;25.08;29.09
49529;BME280;35423;37.320;-121.762;2023-12-29T03:51:38;100280.05;;;25.29;29.10
49529;BME280;35423;37.320;-121.762;2023-12-29T03:54:10;100279.75;;;24.94;29.15
49529;BME280;35423;37.320;-121.762;2023-12-29T03:56:38;100282.69;;;25.14;29.18
49529;BME280;35423;37.320;-121.762;2023-12-29T03:59:09;100284.35;;;24.80;29.33
49529;BME280;35423;37.320;-121.762;2023-12-29T04:01:35;100290.04;;;25.25;29.41
49529;BME280;35423;37.320;-121.762;2023-12-29T04:04:01;100289.99;;;25.22;29.40
49529;BME280;35423;37.320;-121.762;2023-12-29T04:06:27;100281.56;;;25.12;29.36
49529;BME280;35423;37.320;-121.762;2023-12-29T04:08:53;100275.85;;;25.07;29.39
49529;BME280;35423;37.320;-121.762;2023-12-29T04:11:19;100276.43;;;24.85;29.43
49529;BME280;35423;37.320;-121.762;2023-12-29T04:13:49;100275.34;;;25.09;29.45
49529;BME280;35423;37.320;-121.762;2023-12-29T04:16:10;100274.41;;;24.59;29.55
49529;BME280;35423;37.320;-121.762;2023-12-29T04:18:37;100271.10;;;24.89;29.57
49529;BME280;35423;37.320;-121.762;2023-12-29T04:21:03;100271.77;;;25.15;29.57
49529;BME280;35423;37.320;-121.762;2023-12-29T04:23:30;100269.16;;;24.96;29.59
49529;BME280;35423;37.320;-121.762;2023-12-29T04:25:57;100266.52;;;25.21;29.53
49529;BME280;35423;37.320;-121.762;2023-12-29T04:28:23;100258.44;;;25.00;29.48
49529;BME280;35423;37.320;-121.762;2023-12-29T04:30:48;100255.78;;;25.03;29.47
49529;BME280;35423;37.320;-121.762;2023-12-29T04:33:14;100251.05;;;25.00;29.51
49529;BME280;35423;37.320;-121.762;2023-12-29T04:35:41;100246.93;;;25.21;29.54
49529;BME280;35423;37.320;-121.762;2023-12-29T04:38:11;100241.69;;;24.94;29.66
49529;BME280;35423;37.320;-121.762;2023-12-29T04:40:38;100234.54;;;25.09;29.69
49529;BME280;35423;37.320;-121.762;2023-12-29T04:43:11;100219.76;;;24.48;29.79
49529;BME280;35423;37.320;-121.762;2023-12-29T04:45:37;100215.77;;;24.66;29.82
49529;BME280;35423;37.320;-121.762;2023-12-29T04:48:03;100216.76;;;24.79;29.87
49529;BME280;35423;37.320;-121.762;2023-12-29T04:50:28;100226.03;;;24.75;29.89
49529;BME280;35423;37.320;-121.762;2023-12-29T04:52:56;100234.78;;;24.76;29.89
49529;BME280;35423;37.320;-121.762;2023-12-29T04:55:22;100235.40;;;24.73;30.00
49529;BME280;35423;37.320;-121.762;2023-12-29T04:57:49;100231.68;;;24.67;30.08
49529;BME280;35423;37.320;-121.762;2023-12-29T05:00:16;100225.34;;;24.64;30.08
49529;BME280;35423;37.320;-121.762;2023-12-29T05:02:41;100221.84;;;24.64;30.05
49529;BME280;35423;37.320;-121.762;2023-12-29T05:05:08;100221.12;;;24.42;30.10
49529;BME280;35423;37.320;-121.762;2023-12-29T05:07:33;100217.44;;;24.61;30.15
49529;BME280;35423;37.320;-121.762;2023-12-29T05:09:59;100212.98;;;24.57;30.24
49529;BME280;35423;37.320;-121.762;2023-12-29T05:12:30;100208.55;;;24.55;30.21
49529;BME280;35423;37.320;-121.762;2023-12-29T05:14:56;100205.39;;;24.54;30.14
49529;BME280;35423;37.320;-121.762;2023-12-29T05:17:23;100201.82;;;24.46;30.24
49529;BME280;35423;37.320;-121.762;2023-12-29T05:19:50;100192.75;;;24.71;30.30
49529;BME280;35423;37.320;-121.762;2023-12-29T05:22:17;100182.43;;;24.34;30.46
49529;BME280;35423;37.320;-121.762;2023-12-29T05:24:43;100181.08;;;24.79;30.52
49529;BME280;35423;37.320;-121.762;2023-12-29T05:27:10;100176.34;;;24.68;30.62
49529;BME280;35423;37.320;-121.762;2023-12-29T05:29:37;100171.22;;;24.63;30.68
49529;BME280;35423;37.320;-121.762;2023-12-29T05:32:01;100173.89;;;24.55;30.80
49529;BME280;35423;37.320;-121.762;2023-12-29T05:34:28;100173.13;;;24.29;30.90
49529;BME280;35423;37.320;-121.762;2023-12-29T05:36:59;100173.60;;;24.44;31.06
49529;BME280;35423;37.320;-121.762;2023-12-29T05:39:22;100169.02;;;24.36;31.17
49529;BME280;35423;37.320;-121.762;2023-12-29T05:41:47;100166.70;;;24.27;31.28
49529;BME280;35423;37.320;-121.762;2023-12-29T05:44:15;100158.95;;;23.67;31.40
49529;BME280;35423;37.320;-121.762;2023-12-29T05:46:47;100159.06;;;23.85;31.47
49529;BME280;35423;37.320;-121.762;2023-12-29T05:49:07;100157.86;;;23.31;31.53
49529;BME280;35423;37.320;-121.762;2023-12-29T05:51:34;100149.71;;;23.78;31.53
49529;BME280;35423;37.320;-121.762;2023-12-29T05:54:00;100147.17;;;23.93;31.57
49529;BME280;35423;37.320;-121.762;2023-12-29T05:56:28;100150.19;;;23.70;31.54
49529;BME280;35423;37.320;-121.762;2023-12-29T05:58:55;100155.41;;;23.43;31.51
49529;BME280;35423;37.320;-121.762;2023-12-29T06:01:22;100157.24;;;23.75;31.43
49529;BME280;35423;37.320;-121.762;2023-12-29T06:03:49;100156.42;;;23.97;31.42
49529;BME280;35423;37.320;-121.762;2023-12-29T06:06:17;100154.45;;;23.96;31.40
49529;BME280;35423;37.320;-121.762;2023-12-29T06:08:45;100158.28;;;23.80;31.32
49529;BME280;35423;37.320;-121.762;2023-12-29T06:11:15;100157.32;;;23.60;31.20
49529;BME280;35423;37.320;-121.762;2023-12-29T06:13:38;100162.08;;;23.82;31.27
49529;BME280;35423;37.320;-121.762;2023-12-29T06:16:08;100163.73;;;23.76;31.40
49529;BME280;35423;37.320;-121.762;2023-12-29T06:18:34;100161.83;;;23.71;31.44
49529;BME280;35423;37.320;-121.762;2023-12-29T06:21:02;100161.12;;;23.86;31.51
49529;BME280;35423;37.320;-121.762;2023-12-29T06:23:26;100163.39;;;23.74;31.66
49529;BME280;35423;37.320;-121.762;2023-12-29T06:25:52;100161.59;;;23.66;31.75
49529;BME280;35423;37.320;-121.762;2023-12-29T06:28:23;100154.97;;;23.45;31.73
49529;BME280;35423;37.320;-121.762;2023-12-29T06:30:51;100146.54;;;23.40;31.82
49529;BME280;35423;37.320;-121.762;2023-12-29T06:33:21;100146.99;;;23.84;31.82
49529;BME280;35423;37.320;-121.762;2023-12-29T06:35:47;100152.97;;;23.62;31.86
49529;BME280;35423;37.320;-121.762;2023-12-29T06:38:14;100158.45;;;23.38;31.89
49529;BME280;35423;37.320;-121.762;2023-12-29T06:40:40;100156.72;;;23.62;31.89
49529;BME280;35423;37.320;-121.762;2023-12-29T06:43:10;100153.76;;;23.61;31.90
49529;BME280;35423;37.320;-121.762;2023-12-29T06:45:36;100152.53;;;23.83;31.86
49529;BME280;35423;37.320;-121.762;2023-12-29T06:48:03;100153.56;;;23.56;31.89
49529;BME280;35423;37.320;-121.762;2023-12-29T06:50:28;100149.51;;;23.53;31.89
49529;BME280;35423;37.320;-121.762;2023-12-29T06:52:54;100147.01;;;23.48;31.90
49529;BME280;35423;37.320;-121.762;2023-12-29T06:55:19;100141.98;;;23.51;31.84
49529;BME280;35423;37.320;-121.762;2023-12-29T06:57:45;100137.29;;;23.49;31.82
49529;BME280;35423;37.320;-121.762;2023-12-29T07:00:11;100137.28;;;22.99;31.81
49529;BME280;35423;37.320;-121.762;2023-12-29T07:02:39;100138.40;;;23.70;31.81
49529;BME280;35423;37.320;-121.762;2023-12-29T07:05:08;100137.41;;;23.46;31.85
49529;BME280;35423;37.320;-121.762;2023-12-29T07:07:34;100134.42;;;23.41;31.87
49529;BME280;35423;37.320;-121.762;2023-12-29T07:09:59;100133.40;;;23.62;31.88
49529;BME280;35423;37.320;-121.762;2023-12-29T07:12:26;100136.17;;;23.39;31.88
49529;BME280;35423;37.320;-121.762;2023-12-29T07:14:52;100138.74;;;23.36;31.87
49529;BME280;35423;37.320;-121.762;2023-12-29T07:17:18;100140.94;;;23.53;31.91
49529;BME280;35423;37.320;-121.762;2023-12-29T07:19:44;100142.86;;;23.25;31.94
49529;BME280;35423;37.320;-121.762;2023-12-29T07:22:10;100138.94;;;23.24;31.97
49529;BME280;35423;37.320;-121.762;2023-12-29T07:24:36;100139.53;;;23.15;32.02
49529;BME280;35423;37.320;-121.762;2023-12-29T07:27:02;100140.63;;;23.33;32.05
49529;BME280;35423;37.320;-121.762;2023-12-29T07:29:30;100136.92;;;23.09;32.03
49529;BME280;35423;37.320;-121.762;2023-12-29T07:31:57;100136.02;;;23.26;32.04
49529;BME280;35423;37.320;-121.762;2023-12-29T07:34:23;100143.00;;;23.22;32.08
49529;BME280;35423;37.320;-121.762;2023-12-29T07:36:52;100145.01;;;23.14;32.14
49529;BME280;35423;37.320;-121.762;2023-12-29T07:39:17;100145.03;;;23.11;32.20
49529;BME280;35423;37.320;-121.762;2023-12-29T07:41:43;100146.23;;;22.91;32.20
49529;BME280;35423;37.320;-121.762;2023-12-29T07:44:11;100146.50;;;23.38;32.21
49529;BME280;35423;37.320;-121.762;2023-12-29T07:46:35;100143.89;;;23.09;32.22
49529;BME280;35423;37.320;-121.762;2023-12-29T07:49:01;100138.56;;;23.07;32.18
49529;BME280;35423;37.320;-121.762;2023-12-29T07:51:28;100135.14;;;23.00;32.16
49529;BME280;35423;37.320;-121.762;2023-12-29T07:53:56;100130.23;;;22.94;32.16
49529;BME280;35423;37.320;-121.762;2023-12-29T07:56:24;100129.31;;;22.65;32.30
49529;BME280;35423;37.320;-121.762;2023-12-29T07:58:50;100124.22;;;22.86;32.36
49529;BME280;35423;37.320;-121.762;2023-12-29T08:01:15;100119.55;;;22.93;32.26
49529;BME280;35423;37.320;-121.762;2023-12-29T08:03:42;100115.39;;;22.94;32.28
49529;BME280;35423;37.320;-121.762;2023-12-29T08:06:07;100109.25;;;22.68;32.33
49529;BME280;35423;37.320;-121.762;2023-12-29T08:08:34;100099.39;;;22.86;32.33
49529;BME280;35423;37.320;-121.762;2023-12-29T08:11:01;100094.31;;;22.80;32.33
49529;BME280;35423;37.320;-121.762;2023-12-29T08:13:27;100094.56;;;22.69;32.43
49529;BME280;35423;37.320;-121.762;2023-12-29T08:15:55;100092.63;;;22.91;32.49
49529;BME280;35423;37.320;-121.762;2023-12-29T08:18:21;100092.45;;;22.92;32.47
49529;BME280;35423;37.320;-121.762;2023-12-29T08:20:46;100092.33;;;22.66;32.48
49529;BME280;35423;37.320;-121.762;2023-12-29T08:23:16;100088.79;;;22.42;32.48
49529;BME280;35423;37.320;-121.762;2023-12-29T08:25:45;100090.16;;;22.64;32.45
49529;BME280;35423;37.320;-121.762;2023-12-29T08:28:13;100089.30;;;22.63;32.46
49529;BME280;35423;37.320;-121.762;2023-12-29T08:30:39;100080.16;;;22.90;32.47
49529;BME280;35423;37.320;-121.762;2023-12-29T08:33:08;100076.14;;;22.59;32.43
49529;BME280;35423;37.320;-121.762;2023-12-29T08:35:34;100070.82;;;22.56;32.39
49529;BME280;35423;37.320;-121.762;2023-12-29T08:38:02;100064.75;;;22.81;32.39
49529;BME280;35423;37.320;-121.762;2023-12-29T08:40:28;100056.42;;;22.87;32.32
49529;BME280;35423;37.320;-121.762;2023-12-29T08:42:54;100047.91;;;22.87;32.31
49529;BME280;35423;37.320;-121.762;2023-12-29T08:45:20;100043.72;;;22.90;32.31
49529;BME280;35423;37.320;-121.762;2023-12-29T08:47:50;100040.65;;;22.92;32.30
49529;BME280;35423;37.320;-121.762;2023-12-29T08:50:16;100039.04;;;22.96;32.26
49529;BME280;35423;37.320;-121.762;2023-12-29T08:52:42;100043.00;;;22.95;32.27
49529;BME280;35423;37.320;-121.762;2023-12-29T08:55:08;100036.86;;;22.48;32.24
49529;BME280;35423;37.320;-121.762;2023-12-29T08:57:33;100028.88;;;22.72;32.21
49529;BME280;35423;37.320;-121.762;2023-12-29T08:59:58;100019.14;;;22.69;32.25
49529;BME280;35423;37.320;-121.762;2023-12-29T09:02:30;100011.99;;;22.95;32.30
49529;BME280;35423;37.320;-121.762;2023-12-29T09:04:57;100006.97;;;22.69;32.31
49529;BME280;35423;37.320;-121.762;2023-12-29T09:07:23;100000.87;;;22.78;32.20
49529;BME280;35423;37.320;-121.762;2023-12-29T09:09:48;99996.08;;;23.03;32.24
49529;BME280;35423;37.320;-121.762;2023-12-29T09:12:13;100000.71;;;22.58;32.12
49529;BME280;35423;37.320;-121.762;2023-12-29T09:14:39;100000.33;;;22.87;32.03
49529;BME280;35423;37.320;-121.762;2023-12-29T09:17:07;100001.73;;;23.19;31.98
49529;BME280;35423;37.320;-121.762;2023-12-29T09:19:33;100002.38;;;23.19;31.97
49529;BME280;35423;37.320;-121.762;2023-12-29T09:21:58;100006.22;;;23.16;31.97
49529;BME280;35423;37.320;-121.762;2023-12-29T09:24:23;100015.07;;;22.85;32.02
49529;BME280;35423;37.320;-121.762;2023-12-29T09:26:49;100012.42;;;23.01;32.15
49529;BME280;35423;37.320;-121.762;2023-12-29T09:29:15;100017.08;;;22.60;32.11
49529;BME280;35423;37.320;-121.762;2023-12-29T09:31:43;100022.55;;;22.74;31.97
49529;BME280;35423;37.320;-121.762;2023-12-29T09:34:10;100027.50;;;22.82;31.90
49529;BME280;35423;37.320;-121.762;2023-12-29T09:36:38;100034.80;;;22.87;31.85
49529;BME280;35423;37.320;-121.762;2023-12-29T09:39:04;100038.25;;;22.93;31.78
49529;BME280;35423;37.320;-121.762;2023-12-29T09:41:29;100042.33;;;23.00;31.98
49529;BME280;35423;37.320;-121.762;2023-12-29T09:43:54;100047.11;;;23.13;32.16
49529;BME280;35423;37.320;-121.762;2023-12-29T09:46:22;100051.99;;;22.99;32.35
49529;BME280;35423;37.320;-121.762;2023-12-29T09:48:54;100054.34;;;22.90;32.52
49529;BME280;35423;37.320;-121.762;2023-12-29T09:51:20;100053.42;;;22.54;32.68
49529;BME280;35423;37.320;-121.762;2023-12-29T09:53:44;100059.97;;;22.51;32.79
49529;BME280;35423;37.320;-121.762;2023-12-29T09:56:10;100065.50;;;22.74;32.86
49529;BME280;35423;37.320;-121.762;2023-12-29T09:58:36;100067.95;;;22.70;32.94
49529;BME280;35423;37.320;-121.762;2023-12-29T10:01:07;100070.32;;;22.67;32.98
49529;BME280;35423;37.320;-121.762;2023-12-29T10:03:29;100075.68;;;22.65;33.04
49529;BME280;35423;37.320;-121.762;2023-12-29T10:06:01;100077.01;;;22.61;33.10
49529;BME280;35423;37.320;-121.762;2023-12-29T10:08:24;100079.08;;;22.61;33.11
49529;BME280;35423;37.320;-121.762;2023-12-29T10:10:52;100078.48;;;22.89;33.07
49529;BME280;35423;37.320;-121.762;2023-12-29T10:13:18;100073.80;;;22.75;33.00
49529;BME280;35423;37.320;-121.762;2023-12-29T10:15:50;100071.72;;;22.79;32.90
49529;BME280;35423;37.320;-121.762;2023-12-29T10:18:18;100068.33;;;22.39;32.84
49529;BME280;35423;37.320;-121.762;2023-12-29T10:20:48;100068.55;;;22.90;32.70
49529;BME280;35423;37.320;-121.762;2023-12-29T10:23:08;100067.72;;;22.92;32.64
49529;BME280;35423;37.320;-121.762;2023-12-29T10:25:29;100065.09;;;22.60;32.73
49529;BME280;35423;37.320;-121.762;2023-12-29T10:27:56;100056.89;;;22.88;32.72
49529;BME280;35423;37.320;-121.762;2023-12-29T10:30:22;100049.50;;;22.64;32.61
49529;BME280;35423;37.320;-121.762;2023-12-29T10:32:51;100043.30;;;22.75;32.40
49529;BME280;35423;37.320;-121.762;2023-12-29T10:35:15;100036.58;;;22.77;32.30
49529;BME280;35423;37.320;-121.762;2023-12-29T10:37:43;100029.98;;;22.55;32.27
49529;BME280;35423;37.320;-121.762;2023-12-29T10:40:18;100025.84;;;23.07;32.18
49529;BME280;35423;37.320;-121.762;2023-12-29T10:42:36;100017.33;;;23.00;32.20
49529;BME280;35423;37.320;-121.762;2023-12-29T10:45:09;100006.21;;;22.73;32.19
49529;BME280;35423;37.320;-121.762;2023-12-29T10:47:35;99996.38;;;22.96;32.14
49529;BME280;35423;37.320;-121.762;2023-12-29T10:50:02;99990.75;;;22.73;32.09
49529;BME280;35423;37.320;-121.762;2023-12-29T10:52:26;99991.54;;;22.98;32.07
49529;BME280;35423;37.320;-121.762;2023-12-29T10:55:07;99992.70;;;23.07;31.97
49529;BME280;35423;37.320;-121.762;2023-12-29T10:57:26;99990.69;;;23.12;31.19
49529;BME280;35423;37.320;-121.762;2023-12-29T10:59:55;99986.41;;;23.60;31.06
49529;BME280;35423;37.320;-121.762;2023-12-29T11:02:19;99977.60;;;23.09;31.39
49529;BME280;35423;37.320;-121.762;2023-12-29T11:04:44;99983.17;;;23.49;31.50
49529;BME280;35423;37.320;-121.762;2023-12-29T11:07:12;99990.24;;;23.41;31.58
49529;BME280;35423;37.320;-121.762;2023-12-29T11:09:36;99989.77;;;23.21;31.79
49529;BME280;35423;37.320;-121.762;2023-12-29T11:12:04;99984.70;;;23.12;31.99
49529;BME280;35423;37.320;-121.762;2023-12-29T11:14:27;99986.49;;;22.93;32.23
49529;BME280;35423;37.320;-121.762;2023-12-29T11:16:55;99981.07;;;22.78;32.45
49529;BME280;35423;37.320;-121.762;2023-12-29T11:19:19;99980.94;;;22.75;32.54
49529;BME280;35423;37.320;-121.762;2023-12-29T11:21:45;99972.64;;;22.67;32.68
49529;BME280;35423;37.320;-121.762;2023-12-29T11:24:10;99962.50;;;22.35;32.70
49529;BME280;35423;37.320;-121.762;2023-12-29T11:26:42;99960.19;;;22.29;32.82
49529;BME280;35423;37.320;-121.762;2023-12-29T11:29:08;99958.47;;;22.24;32.86
49529;BME280;35423;37.320;-121.762;2023-12-29T11:31:32;99959.86;;;22.46;32.93
49529;BME280;35423;37.320;-121.762;2023-12-29T11:34:05;99957.04;;;22.36;33.02
49529;BME280;35423;37.320;-121.762;2023-12-29T11:36:29;99947.16;;;22.25;33.12
49529;BME280;35423;37.320;-121.762;2023-12-29T11:38:57;99943.77;;;22.18;33.18
49529;BME280;35423;37.320;-121.762;2023-12-29T11:41:30;99943.82;;;22.14;33.21
49529;BME280;35423;37.320;-121.762;2023-12-29T11:43:48;99936.28;;;22.09;33.23
49529;BME280;35423;37.320;-121.762;2023-12-29T11:53:33;99939.81;;;22.06;33.43
49529;BME280;35423;37.320;-121.762;2023-12-29T11:56:01;99938.59;;;22.20;33.53
49529;BME280;35423;37.320;-121.762;2023-12-29T11:58:27;99942.76;;;21.65;33.59
49529;BME280;35423;37.320;-121.762;2023-12-29T12:00:55;99942.22;;;21.64;33.58
49529;BME280;35423;37.320;-121.762;2023-12-29T12:03:25;99939.72;;;21.62;33.55
49529;BME280;35423;37.320;-121.762;2023-12-29T12:05:48;99941.30;;;21.82;33.55
49529;BME280;35423;37.320;-121.762;2023-12-29T12:10:38;99944.86;;;21.72;33.62
49529;BME280;35423;37.320;-121.762;2023-12-29T12:13:05;99948.96;;;21.90;33.69
49529;BME280;35423;37.320;-121.762;2023-12-29T12:15:33;99954.01;;;21.86;33.76
49529;BME280;35423;37.320;-121.762;2023-12-29T12:17:56;99956.89;;;21.87;33.76
49529;BME280;35423;37.320;-121.762;2023-12-29T12:20:21;99956.55;;;21.45;33.75
49529;BME280;35423;37.320;-121.762;2023-12-29T12:22:55;99952.98;;;21.43;33.78
49529;BME280;35423;37.320;-121.762;2023-12-29T12:25:14;99955.51;;;21.42;33.81
49529;BME280;35423;37.320;-121.762;2023-12-29T12:27:40;99957.10;;;21.68;33.72